Time;durP1;ratioP1;P1;durP2;ratioP2;P2;SDS_P1;SDS_P2;PMS_P1;PMS_P2;Temp;Humidity;BMP_temperature;BMP_pressure;BME280_temperature;BME280_humidity;BME280_pressure;Samples;Min_cycle;Max_cycle;Signal;HPM_P1;HPM_P2
2021/09/03 00:01:38;;;;;;;15.10;9.27;;;17.60;97.20;;;;;;5057176;28;20052;-48
2021/09/03 00:04:04;;;;;;;14.85;8.65;;;17.70;97.20;;;;;;5095865;28;20080;-49
2021/09/03 00:06:30;;;;;;;13.35;8.75;;;17.70;97.80;;;;;;5095992;28;20028;-49
2021/09/03 00:08:56;;;;;;;9.15;7.72;;;17.50;98.20;;;;;;5060360;28;20032;-48
2021/09/03 00:11:21;;;;;;;10.30;8.50;;;17.40;98.40;;;;;;5077122;28;20111;-48
2021/09/03 00:13:47;;;;;;;12.38;7.85;;;17.60;99.90;;;;;;5095470;28;20387;-49
2021/09/03 00:16:13;;;;;;;10.10;8.00;;;17.60;99.90;;;;;;5060426;28;20036;-49
2021/09/03 00:18:39;;;;;;;10.60;7.95;;;17.70;99.90;;;;;;5095916;28;20016;-48
2021/09/03 00:21:05;;;;;;;11.75;8.68;;;17.60;99.90;;;;;;5095411;28;20383;-49
2021/09/03 00:23:31;;;;;;;10.70;7.65;;;17.60;99.90;;;;;;5095665;28;20058;-49
2021/09/03 00:25:56;;;;;;;10.88;8.13;;;17.60;99.90;;;;;;5095445;28;20113;-48
2021/09/03 00:28:22;;;;;;;10.90;7.95;;;17.60;99.90;;;;;;5094443;28;20051;-48
2021/09/03 00:30:48;;;;;;;11.23;7.88;;;17.60;99.90;;;;;;5076565;28;20103;-49
2021/09/03 00:33:14;;;;;;;10.18;6.90;;;17.60;99.90;;;;;;5095553;28;20028;-49
2021/09/03 00:35:40;;;;;;;9.90;7.43;;;17.60;99.90;;;;;;5095176;28;20036;-49
2021/09/03 00:38:05;;;;;;;8.73;7.40;;;17.60;99.90;;;;;;5095362;28;20064;-49
2021/09/03 00:40:31;;;;;;;12.80;7.63;;;17.60;99.90;;;;;;5095136;28;20062;-48
2021/09/03 00:42:57;;;;;;;10.65;7.63;;;17.50;99.90;;;;;;5043238;28;20501;-49
2021/09/03 00:45:23;;;;;;;11.27;6.70;;;17.50;99.90;;;;;;5059720;28;20114;-49
2021/09/03 00:47:48;;;;;;;10.25;6.97;;;17.40;99.90;;;;;;5095131;28;20471;-48
2021/09/03 00:50:16;;;;;;;8.60;6.55;;;17.30;99.90;;;;;;5043181;28;20028;-48
2021/09/03 00:52:42;;;;;;;11.07;6.72;;;17.30;99.90;;;;;;5095098;28;20050;-49
2021/09/03 00:55:09;;;;;;;10.43;6.07;;;17.30;99.90;;;;;;5076209;28;20484;-49
2021/09/03 00:57:34;;;;;;;9.52;6.30;;;17.20;99.90;;;;;;5094921;28;20028;-50
2021/09/03 01:00:01;;;;;;;8.57;6.10;;;17.20;99.90;;;;;;5094802;28;20051;-48
2021/09/03 01:02:26;;;;;;;12.32;6.30;;;17.00;99.10;;;;;;5059544;28;20047;-48
2021/09/03 01:04:52;;;;;;;9.27;6.60;;;17.00;99.00;;;;;;5094552;28;20027;-48
2021/09/03 01:07:18;;;;;;;8.05;6.05;;;17.00;99.10;;;;;;5059928;28;20032;-49
2021/09/03 01:09:44;;;;;;;8.95;6.40;;;17.10;99.00;;;;;;5076588;28;20062;-48
2021/09/03 01:12:10;;;;;;;9.20;6.70;;;17.00;99.00;;;;;;5094509;28;20024;-48
2021/09/03 01:14:38;;;;;;;8.77;6.93;;;17.00;99.10;;;;;;5094636;28;20111;-49
2021/09/03 01:17:04;;;;;;;9.90;6.75;;;17.00;99.00;;;;;;5075757;28;20434;-49
2021/09/03 01:19:30;;;;;;;10.38;7.10;;;16.90;99.20;;;;;;5076161;28;20036;-48
2021/09/03 01:21:56;;;;;;;9.90;6.90;;;17.00;99.20;;;;;;5059053;28;20035;-49
2021/09/03 01:24:24;;;;;;;7.57;6.20;;;17.00;99.20;;;;;;5094838;28;20053;-49
2021/09/03 01:26:50;;;;;;;11.55;7.35;;;17.00;99.20;;;;;;5042317;28;20040;-48
2021/09/03 01:29:16;;;;;;;8.85;7.32;;;17.00;99.10;;;;;;5094717;28;20108;-48
2021/09/03 01:31:42;;;;;;;10.40;7.35;;;16.90;99.20;;;;;;5094363;28;20028;-48
2021/09/03 01:34:08;;;;;;;9.32;7.28;;;16.90;99.20;;;;;;5075818;28;20044;-48
2021/09/03 01:36:34;;;;;;;10.45;6.25;;;16.90;99.30;;;;;;5094284;28;20114;-48
2021/09/03 01:39:00;;;;;;;13.10;7.32;;;16.80;99.30;;;;;;5093796;28;20063;-47
2021/09/03 01:41:26;;;;;;;8.50;6.85;;;16.70;99.40;;;;;;5094114;28;20103;-49
2021/09/03 01:43:55;;;;;;;9.10;7.10;;;16.70;99.30;;;;;;5094223;28;20066;-49
2021/09/03 01:46:21;;;;;;;8.05;6.60;;;16.70;99.40;;;;;;5058786;28;20047;-49
2021/09/03 01:48:47;;;;;;;10.18;6.38;;;16.70;99.40;;;;;;5093904;28;20036;-49
2021/09/03 01:51:13;;;;;;;11.13;7.03;;;16.60;99.30;;;;;;5093995;28;20043;-49
2021/09/03 01:53:39;;;;;;;10.57;6.80;;;16.60;99.50;;;;;;5075331;28;20036;-48
2021/09/03 01:56:06;;;;;;;9.70;6.90;;;16.50;99.60;;;;;;5093790;28;20422;-48
2021/09/03 01:58:31;;;;;;;9.55;6.85;;;16.40;99.80;;;;;;5093988;28;20024;-49
2021/09/03 02:00:57;;;;;;;7.78;6.13;;;16.40;99.90;;;;;;5093380;28;20089;-48
2021/09/03 02:03:23;;;;;;;10.35;6.25;;;16.50;99.70;;;;;;5093815;28;20116;-47
2021/09/03 02:05:49;;;;;;;11.25;6.82;;;16.40;99.60;;;;;;5093758;28;20031;-49
2021/09/03 02:08:14;;;;;;;9.52;6.53;;;16.40;99.60;;;;;;5093664;28;20028;-48
2021/09/03 02:10:40;;;;;;;8.10;7.28;;;16.40;99.50;;;;;;5075061;28;20046;-49
2021/09/03 02:13:06;;;;;;;8.95;7.65;;;16.40;99.50;;;;;;5092473;28;20036;-49
2021/09/03 02:15:31;;;;;;;10.35;6.80;;;16.30;99.50;;;;;;5093757;28;20074;-49
2021/09/03 02:17:57;;;;;;;9.77;7.20;;;16.30;99.60;;;;;;5058283;28;20040;-48
2021/09/03 02:20:23;;;;;;;13.57;7.80;;;16.30;99.60;;;;;;5058243;28;20039;-49
2021/09/03 02:22:49;;;;;;;11.52;7.25;;;16.40;99.70;;;;;;5093542;28;20024;-49
2021/09/03 02:25:15;;;;;;;8.73;6.65;;;16.30;99.80;;;;;;5075082;28;20032;-49
2021/09/03 02:27:40;;;;;;;8.82;7.10;;;16.30;99.90;;;;;;5093493;28;20024;-48
2021/09/03 02:30:07;;;;;;;11.23;7.20;;;16.30;99.90;;;;;;5041424;28;20036;-49
2021/09/03 02:32:33;;;;;;;8.60;6.72;;;16.30;99.80;;;;;;5093585;28;20036;-49
2021/09/03 02:34:58;;;;;;;13.77;8.25;;;16.30;99.90;;;;;;5093339;28;20032;-48
2021/09/03 02:37:24;;;;;;;11.00;7.68;;;16.30;99.90;;;;;;5075073;28;20043;-51
2021/09/03 02:39:50;;;;;;;10.95;7.32;;;16.20;99.90;;;;;;5093518;28;20074;-48
2021/09/03 02:42:16;;;;;;;14.05;7.35;;;16.00;99.90;;;;;;5093779;28;20035;-48
2021/09/03 02:44:42;;;;;;;9.48;7.32;;;16.00;99.90;;;;;;5093304;28;20387;-48
2021/09/03 02:47:08;;;;;;;14.68;8.88;;;16.00;99.90;;;;;;5093269;28;20055;-48
2021/09/03 02:49:34;;;;;;;10.48;7.70;;;16.00;99.90;;;;;;5041269;28;20499;-48
2021/09/03 02:52:00;;;;;;;10.52;7.47;;;16.00;99.90;;;;;;5096039;28;20028;-48
2021/09/03 02:54:25;;;;;;;9.45;7.57;;;16.00;99.90;;;;;;5097328;28;20127;-48
2021/09/03 02:56:51;;;;;;;10.90;7.35;;;16.00;99.90;;;;;;5097260;28;20032;-48
2021/09/03 02:59:17;;;;;;;10.02;7.03;;;15.90;99.90;;;;;;5097062;28;20454;-49
2021/09/03 03:01:45;;;;;;;8.90;7.22;;;15.90;99.90;;;;;;5044843;28;20127;-48
2021/09/03 03:04:11;;;;;;;9.68;7.15;;;15.90;99.90;;;;;;5044685;28;20055;-48
2021/09/03 03:06:37;;;;;;;7.30;6.60;;;15.70;99.90;;;;;;5045244;28;20619;-47
2021/09/03 03:09:10;;;;;;;9.65;6.35;;;15.70;99.90;;;;;;5097024;28;20464;-49
2021/09/03 03:11:35;;;;;;;10.23;6.47;;;15.60;99.90;;;;;;5028337;28;20429;-49
2021/09/03 03:14:04;;;;;;;9.48;7.22;;;15.70;99.90;;;;;;5096861;28;20024;-48
2021/09/03 03:16:30;;;;;;;10.32;6.90;;;15.80;99.90;;;;;;5096603;28;20119;-48
2021/09/03 03:18:56;;;;;;;8.60;6.22;;;15.60;99.90;;;;;;5097001;28;20020;-48
2021/09/03 03:21:22;;;;;;;8.50;7.13;;;15.30;99.90;;;;;;5096779;28;20383;-49
2021/09/03 03:23:47;;;;;;;7.07;6.13;;;15.00;99.90;;;;;;5096797;28;20036;-48
2021/09/03 03:26:13;;;;;;;9.30;6.45;;;14.60;99.90;;;;;;5078259;28;20040;-47
2021/09/03 03:28:39;;;;;;;8.35;6.50;;;14.50;99.90;;;;;;5096630;28;20024;-48
2021/09/03 03:31:05;;;;;;;11.23;7.10;;;14.40;99.90;;;;;;5096813;28;20028;-49
2021/09/03 03:33:30;;;;;;;10.82;7.15;;;14.20;99.90;;;;;;5096790;28;20593;-48
2021/09/03 03:35:56;;;;;;;8.80;6.70;;;14.20;99.90;;;;;;5096435;28;20031;-48
2021/09/03 03:38:22;;;;;;;10.15;6.55;;;14.20;99.90;;;;;;5096272;28;20020;-48
2021/09/03 03:40:47;;;;;;;8.93;6.68;;;14.30;99.90;;;;;;5096524;28;20375;-47
2021/09/03 03:43:13;;;;;;;7.35;5.85;;;14.60;99.90;;;;;;5096521;28;20036;-47
2021/09/03 03:45:39;;;;;;;10.27;6.28;;;14.80;99.90;;;;;;5027536;28;20024;-49
2021/09/03 03:48:05;;;;;;;7.50;6.30;;;14.70;99.90;;;;;;5096279;28;20418;-49
2021/09/03 03:50:31;;;;;;;7.95;6.10;;;14.60;99.90;;;;;;5096203;28;20081;-49
2021/09/03 03:52:56;;;;;;;7.68;6.68;;;14.20;99.90;;;;;;5044315;28;20027;-49
2021/09/03 03:55:22;;;;;;;10.85;6.80;;;14.10;99.90;;;;;;5096142;28;20101;-49
2021/09/03 03:57:48;;;;;;;10.55;7.28;;;14.20;99.90;;;;;;5077403;28;20047;-49
2021/09/03 04:00:14;;;;;;;8.68;6.53;;;14.00;99.90;;;;;;5341980;22;20071;-52
2021/09/03 04:02:40;;;;;;;7.70;6.78;;;13.80;99.90;;;;;;5031424;28;20038;-52
2021/09/03 04:05:06;;;;;;;8.90;6.85;;;13.90;99.90;;;;;;5116431;28;20466;-51
2021/09/03 04:07:32;;;;;;;8.57;6.13;;;13.70;99.90;;;;;;5064265;28;20024;-50
2021/09/03 04:09:58;;;;;;;9.27;7.03;;;13.70;99.90;;;;;;5116593;28;20103;-50
2021/09/03 04:12:24;;;;;;;7.90;6.75;;;13.90;99.90;;;;;;5116546;28;20027;-51
2021/09/03 04:14:49;;;;;;;16.67;8.35;;;14.10;99.90;;;;;;5116390;28;20603;-50
2021/09/03 04:17:15;;;;;;;14.70;7.82;;;;;;;;;;5047439;28;20504;-50
2021/09/03 04:19:41;;;;;;;14.63;8.48;;;14.70;99.90;;;;;;5116334;28;20042;-50
2021/09/03 04:22:07;;;;;;;12.68;7.18;;;14.80;99.90;;;;;;5116379;28;20475;-51
2021/09/03 04:24:33;;;;;;;14.65;7.13;;;14.90;99.90;;;;;;5113421;28;20020;-51
2021/09/03 04:26:59;;;;;;;10.88;7.20;;;15.00;99.90;;;;;;5098241;28;20032;-51
2021/09/03 04:29:26;;;;;;;11.80;6.68;;;15.10;99.90;;;;;;5095382;28;20024;-51
2021/09/03 04:31:52;;;;;;;9.77;6.50;;;15.10;99.90;;;;;;5095462;28;20024;-50
2021/09/03 04:34:18;;;;;;;14.25;8.02;;;15.20;99.90;;;;;;5095656;28;20036;-49
2021/09/03 04:36:44;;;;;;;14.40;8.88;;;15.20;99.90;;;;;;5095339;28;20059;-49
2021/09/03 04:39:09;;;;;;;16.73;8.57;;;15.30;99.90;;;;;;5095513;28;20081;-49
2021/09/03 04:41:35;;;;;;;17.55;7.82;;;15.40;99.90;;;;;;5095572;28;20020;-49
2021/09/03 04:44:01;;;;;;;15.15;7.97;;;15.50;99.90;;;;;;5059858;28;20075;-49
2021/09/03 04:46:27;;;;;;;14.75;7.85;;;15.50;99.90;;;;;;5095484;28;20035;-49
2021/09/03 04:48:52;;;;;;;12.40;7.63;;;15.60;99.90;;;;;;5095115;28;20020;-48
2021/09/03 04:51:18;;;;;;;14.10;7.07;;;15.50;99.90;;;;;;5095731;28;20028;-49
2021/09/03 04:53:44;;;;;;;11.68;7.38;;;15.60;99.90;;;;;;5059803;28;20061;-48
2021/09/03 04:56:09;;;;;;;19.15;7.40;;;15.60;99.90;;;;;;5094897;28;20119;-49
2021/09/03 04:58:35;;;;;;;23.65;9.13;;;15.70;99.90;;;;;;5076748;28;20036;-49
2021/09/03 05:01:01;;;;;;;28.25;8.68;;;15.70;99.90;;;;;;5059109;28;20052;-49
2021/09/03 05:03:26;;;;;;;15.68;8.90;;;15.80;99.90;;;;;;5095809;28;20020;-49
2021/09/03 05:05:52;;;;;;;18.50;7.35;;;15.90;99.90;;;;;;5101273;28;20027;-50
2021/09/03 05:08:18;;;;;;;21.30;8.07;;;16.00;99.90;;;;;;5103303;28;20073;-47
2021/09/03 05:10:44;;;;;;;14.68;7.32;;;16.10;99.90;;;;;;5074517;28;20024;-49
2021/09/03 05:13:10;;;;;;;15.38;7.95;;;16.20;99.90;;;;;;5105883;28;20020;-48
2021/09/03 05:15:40;;;;;;;13.18;7.28;;;16.30;99.90;;;;;;5102812;28;20036;-48
2021/09/03 05:18:06;;;;;;;12.68;7.35;;;16.30;99.90;;;;;;5076049;28;20028;-49
2021/09/03 05:20:31;;;;;;;9.63;7.40;;;16.40;99.90;;;;;;5105856;28;20433;-49
2021/09/03 05:22:57;;;;;;;10.07;7.60;;;16.40;99.90;;;;;;5103187;28;20117;-49
2021/09/03 05:25:24;;;;;;;13.68;8.48;;;16.40;99.90;;;;;;5068984;28;20110;-49
2021/09/03 05:27:50;;;;;;;17.67;8.02;;;16.50;99.90;;;;;;5104549;28;20024;-49
2021/09/03 05:30:16;;;;;;;11.68;8.45;;;16.60;99.90;;;;;;5102941;28;20024;-49
2021/09/03 05:32:42;;;;;;;15.40;10.70;;;16.70;99.90;;;;;;5094584;28;20060;-49
2021/09/03 05:35:08;;;;;;;18.55;10.20;;;16.80;99.90;;;;;;5098475;28;20080;-49
2021/09/03 05:37:35;;;;;;;13.85;10.40;;;16.90;99.90;;;;;;5105133;28;20134;-48
2021/09/03 05:40:02;;;;;;;15.20;11.30;;;17.00;99.90;;;;;;5102988;28;20020;-49
2021/09/03 05:42:28;;;;;;;14.30;10.48;;;17.10;99.90;;;;;;5100370;28;20027;-49
2021/09/03 05:44:54;;;;;;;16.80;11.38;;;17.20;99.90;;;;;;5104861;28;20024;-49
2021/09/03 05:47:20;;;;;;;16.05;11.77;;;17.20;99.90;;;;;;5102581;28;20527;-49
2021/09/03 05:49:46;;;;;;;23.92;13.80;;;17.30;99.90;;;;;;5104197;28;20023;-49
2021/09/03 05:52:12;;;;;;;17.20;12.20;;;17.30;99.90;;;;;;5048579;28;20064;-49
2021/09/03 05:54:38;;;;;;;22.55;13.07;;;17.20;99.90;;;;;;5094184;28;20032;-48
2021/09/03 05:57:05;;;;;;;15.68;11.85;;;17.10;99.90;;;;;;5058524;28;20076;-49
2021/09/03 05:59:31;;;;;;;21.00;12.88;;;17.10;99.90;;;;;;5075041;28;20040;-49
2021/09/03 06:01:57;;;;;;;17.40;11.23;;;17.20;99.90;;;;;;5094114;28;20026;-49
2021/09/03 06:04:23;;;;;;;18.13;12.18;;;17.20;99.90;;;;;;5094142;28;20032;-49
2021/09/03 06:06:49;;;;;;;17.20;10.95;;;17.30;99.90;;;;;;5075672;28;20167;-49
2021/09/03 06:09:15;;;;;;;18.65;10.98;;;17.40;99.90;;;;;;5094085;28;20047;-48
2021/09/03 06:11:40;;;;;;;21.60;10.20;;;17.40;99.90;;;;;;5075304;28;20114;-48
2021/09/03 06:14:06;;;;;;;19.70;10.05;;;17.40;99.90;;;;;;5093911;28;20063;-48
2021/09/03 06:16:32;;;;;;;23.23;10.43;;;17.50;99.90;;;;;;5108173;28;20390;-48
2021/09/03 06:18:58;;;;;;;16.40;10.15;;;17.60;99.90;;;;;;5113587;28;20035;-48
2021/09/03 06:21:23;;;;;;;12.70;9.88;;;17.80;99.90;;;;;;5113951;28;20026;-48
2021/09/03 06:23:49;;;;;;;12.80;9.43;;;17.80;99.90;;;;;;5114593;28;20036;-49
2021/09/03 06:26:15;;;;;;;15.75;10.10;;;17.90;99.90;;;;;;5115965;28;20450;-48
2021/09/03 06:28:41;;;;;;;13.52;9.05;;;18.00;99.90;;;;;;5118422;28;20031;-49
2021/09/03 06:31:07;;;;;;;14.10;9.30;;;18.20;99.90;;;;;;5118530;28;20020;-49
2021/09/03 06:33:33;;;;;;;13.88;8.73;;;18.40;99.90;;;;;;5082655;28;20038;-48
2021/09/03 06:35:59;;;;;;;12.00;8.75;;;18.50;99.90;;;;;;5118273;28;20117;-50
2021/09/03 06:38:26;;;;;;;15.32;9.45;;;18.80;99.90;;;;;;5065710;28;20474;-49
2021/09/03 06:40:52;;;;;;;15.43;8.43;;;18.90;99.90;;;;;;5118582;28;20035;-48
2021/09/03 06:43:18;;;;;;;15.48;10.13;;;19.00;99.90;;;;;;5082694;28;20027;-49
2021/09/03 06:45:44;;;;;;;13.27;8.45;;;19.10;99.90;;;;;;5066133;28;20031;-50
2021/09/03 06:48:10;;;;;;;18.05;9.32;;;19.00;99.90;;;;;;5118433;28;20031;-47
2021/09/03 06:50:35;;;;;;;16.85;10.10;;;19.20;99.90;;;;;;5082027;28;20024;-49
2021/09/03 06:53:01;;;;;;;11.85;8.82;;;19.40;99.90;;;;;;5118051;28;20348;-48
2021/09/03 06:55:27;;;;;;;16.00;8.90;;;19.50;99.90;;;;;;5117595;28;20027;-48
2021/09/03 06:57:52;;;;;;;18.80;9.32;;;19.60;99.90;;;;;;5117787;28;20022;-50
2021/09/03 07:00:18;;;;;;;22.00;9.02;;;19.70;99.90;;;;;;5081928;28;20494;-49
2021/09/03 07:02:44;;;;;;;12.57;8.45;;;19.90;99.90;;;;;;5117886;28;20023;-48
2021/09/03 07:05:11;;;;;;;12.98;8.55;;;20.10;99.90;;;;;;5065317;28;20032;-48
2021/09/03 07:07:38;;;;;;;17.08;9.05;;;20.20;99.90;;;;;;5117822;28;20027;-48
2021/09/03 07:10:04;;;;;;;13.05;8.80;;;20.40;99.90;;;;;;5118001;28;20129;-49
2021/09/03 07:12:30;;;;;;;15.38;9.07;;;20.50;99.70;;;;;;5110810;28;20098;-48
2021/09/03 07:14:56;;;;;;;16.10;9.20;;;20.70;99.50;;;;;;5097335;28;20110;-50
2021/09/03 07:17:22;;;;;;;15.77;8.30;;;20.80;99.20;;;;;;5028875;28;20036;-49
2021/09/03 07:19:47;;;;;;;12.65;8.98;;;20.90;99.50;;;;;;5097159;28;20142;-49
2021/09/03 07:22:13;;;;;;;16.38;8.88;;;20.90;98.30;;;;;;5097294;28;20031;-50
2021/09/03 07:24:39;;;;;;;12.15;8.57;;;21.10;98.30;;;;;;5044977;28;20040;-48
2021/09/03 07:27:05;;;;;;;15.82;8.80;;;21.10;97.90;;;;;;5116238;28;20031;-50
2021/09/03 07:29:31;;;;;;;14.43;8.52;;;21.30;98.00;;;;;;5031613;28;20043;-48
2021/09/03 07:31:56;;;;;;;12.63;9.00;;;21.50;97.80;;;;;;5117112;28;20481;-49
2021/09/03 07:34:22;;;;;;;13.52;9.70;;;21.70;97.60;;;;;;5117168;28;20024;-49
2021/09/03 07:36:48;;;;;;;15.18;8.98;;;22.10;97.80;;;;;;5116791;28;20054;-50
2021/09/03 07:39:18;;;;;;;13.23;8.70;;;22.20;97.20;;;;;;5117365;28;20362;-50
2021/09/03 07:41:45;;;;;;;14.40;8.40;;;22.40;96.50;;;;;;5117133;28;20428;-49
2021/09/03 07:44:11;;;;;;;13.25;9.15;;;22.60;96.00;;;;;;5116790;28;20493;-50
2021/09/03 07:46:37;;;;;;;13.75;8.45;;;22.80;95.00;;;;;;5116776;28;20019;-50
2021/09/03 07:49:05;;;;;;;12.43;8.52;;;22.90;95.40;;;;;;5116720;28;20016;-49
2021/09/03 07:51:31;;;;;;;17.05;8.48;;;23.20;94.70;;;;;;5116573;28;20035;-50
2021/09/03 07:53:57;;;;;;;14.52;8.40;;;23.30;94.40;;;;;;5116677;28;20470;-48
2021/09/03 07:56:23;;;;;;;12.32;8.13;;;23.60;94.20;;;;;;5098541;28;20067;-50
2021/09/03 07:58:49;;;;;;;12.25;8.43;;;23.70;93.70;;;;;;5117137;28;20069;-48
2021/09/03 08:01:15;;;;;;;12.18;7.22;;;23.80;92.00;;;;;;5050785;27;20130;-49
2021/09/03 08:03:40;;;;;;;13.65;8.25;;;24.10;92.10;;;;;;5137273;27;20019;-49
2021/09/03 08:06:06;;;;;;;14.63;8.82;;;24.20;91.80;;;;;;5136983;27;20118;-50
2021/09/03 08:08:32;;;;;;;10.40;8.27;;;24.40;91.70;;;;;;5137222;27;20098;-50
2021/09/03 08:10:58;;;;;;;11.65;8.30;;;24.20;90.10;;;;;;5136846;27;20023;-49
2021/09/03 08:13:24;;;;;;;11.60;7.10;;;24.50;90.20;;;;;;5137132;27;20076;-49
2021/09/03 08:15:49;;;;;;;8.77;7.43;;;24.80;88.40;;;;;;5084477;27;20058;-51
2021/09/03 08:18:16;;;;;;;12.70;9.02;;;;;;;;;;5137077;27;20477;-49
2021/09/03 08:20:45;;;;;;;9.13;7.35;;;;;;;;;;5084928;27;20465;-50
2021/09/03 08:23:13;;;;;;;89.15;12.98;;;;;;;;;;5136634;27;20024;-49
2021/09/03 08:25:39;;;;;;;29.40;7.60;;;;;;;;;;5084410;27;20436;-49
2021/09/03 08:28:06;;;;;;;12.80;6.68;;;;;;;;;;5136627;27;20023;-49
2021/09/03 08:30:32;;;;;;;9.00;5.35;;;;;;;;;;5117762;27;20031;-48
2021/09/03 08:32:58;;;;;;;9.95;6.38;;;;;;;;;;5136740;27;20418;-49
2021/09/03 08:35:25;;;;;;;9.90;6.57;;;;;;;;;;5117704;27;20039;-49
2021/09/03 08:37:51;;;;;;;9.38;6.13;;;;;;;;;;5116239;27;20071;-50
2021/09/03 08:40:18;;;;;;;14.77;7.43;;;;;;;;;;5136291;27;20094;-50
2021/09/03 08:42:44;;;;;;;12.43;6.80;;;;;;;;;;5136560;27;20019;-50
2021/09/03 08:45:14;;;;;;;9.88;6.10;;;26.60;75.10;;;;;;5100467;27;20394;-51
2021/09/03 08:47:44;;;;;;;9.25;5.53;;;26.40;73.30;;;;;;5135981;27;20470;-49
2021/09/03 08:50:11;;;;;;;11.00;5.93;;;;;;;;;;5116584;27;20102;-49
2021/09/03 08:52:45;;;;;;;8.07;5.43;;;;;;;;;;5136145;27;20019;-50
2021/09/03 08:55:11;;;;;;;10.27;5.25;;;;;;;;;;5136147;27;20030;-50
2021/09/03 08:57:37;;;;;;;6.93;4.40;;;;;;;;;;5135788;27;20024;-49
2021/09/03 09:00:20;;;;;;;8.95;4.68;;;27.90;71.80;;;;;;5128428;27;20055;-49
2021/09/03 09:03:03;;;;;;;7.47;4.53;;;27.80;72.40;;;;;;5115194;28;20032;-50
2021/09/03 09:05:44;;;;;;;7.80;3.72;;;27.50;72.10;;;;;;5115238;28;20517;-50
2021/09/03 09:08:11;;;;;;;5.93;4.20;;;27.40;67.70;;;;;;5115512;28;20031;-49
2021/09/03 09:10:52;;;;;;;4.38;3.78;;;27.60;69.60;;;;;;5110752;28;20114;-51
2021/09/03 09:13:22;;;;;;;5.45;3.85;;;;;;;;;;5105565;28;20027;-49
2021/09/03 09:15:58;;;;;;;4.78;3.50;;;;;;;;;;5115139;28;20028;-50
2021/09/03 09:18:49;;;;;;;7.38;3.30;;;27.80;63.90;;;;;;5112001;28;20028;-49
2021/09/03 09:21:29;;;;;;;5.80;3.70;;;27.20;64.60;;;;;;5068205;28;20119;-50
2021/09/03 09:23:58;;;;;;;6.25;3.33;;;27.60;66.50;;;;;;5093377;28;20089;-49
2021/09/03 09:26:27;;;;;;;4.47;3.13;;;27.50;67.60;;;;;;5107876;28;20065;-49
2021/09/03 09:28:54;;;;;;;4.47;2.28;;;27.50;65.60;;;;;;5113610;28;20035;-49
2021/09/03 09:31:31;;;;;;;4.10;2.92;;;27.80;64.00;;;;;;5113502;28;20102;-49
2021/09/03 09:33:58;;;;;;;6.95;2.83;;;;;;;;;;5113499;28;20111;-50
2021/09/03 09:36:31;;;;;;;4.43;2.95;;;28.00;80.20;;;;;;5113135;28;20096;-50
2021/09/03 09:38:58;;;;;;;4.45;3.10;;;27.00;61.60;;;;;;5113491;28;20098;-48
2021/09/03 09:41:25;;;;;;;5.75;3.08;;;27.10;63.70;;;;;;5113339;28;20050;-49
2021/09/03 09:43:51;;;;;;;3.72;3.00;;;;;;;;;;5113366;28;20040;-50
2021/09/03 09:46:20;;;;;;;4.47;2.70;;;27.90;63.60;;;;;;5113262;28;20529;-49
2021/09/03 09:48:49;;;;;;;6.03;3.65;;;28.40;62.90;;;;;;5077047;28;20063;-51
2021/09/03 09:51:23;;;;;;;5.07;3.10;;;27.80;61.60;;;;;;5077125;28;20043;-50
2021/09/03 09:54:04;;;;;;;6.13;3.25;;;27.80;63.10;;;;;;5113174;28;20115;-49
2021/09/03 09:56:33;;;;;;;4.20;2.85;;;27.80;62.60;;;;;;5113038;28;20051;-51
2021/09/03 09:59:00;;;;;;;5.65;2.88;;;28.10;63.20;;;;;;5060510;28;20402;-51
2021/09/03 10:01:26;;;;;;;4.18;2.85;;;28.40;62.70;;;;;;5076478;28;20044;-51
2021/09/03 10:03:53;;;;;;;4.30;2.60;;;;;;;;;;5094007;28;20063;-49
2021/09/03 10:06:29;;;;;;;5.75;2.88;;;;;;;;;;5077013;28;20032;-51
2021/09/03 10:08:56;;;;;;;6.20;3.13;;;;;;;;;;5112963;28;20490;-51
2021/09/03 10:11:22;;;;;;;5.70;2.72;;;;;;;;;;5077198;28;20109;-50
2021/09/03 10:13:49;;;;;;;4.80;2.60;;;;;;;;;;5112786;28;20333;-49
2021/09/03 10:16:15;;;;;;;3.40;2.30;;;;;;;;;;5112707;28;20035;-49
2021/09/03 10:18:43;;;;;;;2.80;2.10;;;;;;;;;;5112849;28;20070;-50
2021/09/03 10:21:10;;;;;;;8.38;4.30;;;;;;;;;;5112854;28;20032;-50
2021/09/03 10:23:54;;;;;;;3.80;2.40;;;;;;;;;;5112761;28;20028;-50
2021/09/03 10:26:22;;;;;;;4.65;2.50;;;;;;;;;;5112614;28;20106;-50
2021/09/03 10:28:48;;;;;;;4.18;2.38;;;;;;;;;;5112617;28;20031;-51
2021/09/03 10:31:22;;;;;;;4.70;2.30;;;;;;;;;;5112738;28;20050;-51
2021/09/03 10:33:48;;;;;;;5.30;2.83;;;;;;;;;;5112520;28;20597;-51
2021/09/03 10:36:34;;;;;;;4.32;2.47;;;;;;;;;;5112558;28;20110;-51
2021/09/03 10:39:25;;;;;;;3.35;2.33;;;29.20;85.10;;;;;;5112739;28;20051;-49
2021/09/03 10:41:52;;;;;;;3.45;2.13;;;29.00;83.00;;;;;;5112468;28;20026;-50
2021/09/03 10:44:18;;;;;;;3.92;2.10;;;28.50;58.70;;;;;;5112584;28;20061;-49
2021/09/03 10:46:44;;;;;;;2.25;1.80;;;28.60;58.80;;;;;;5112533;28;20598;-51
2021/09/03 10:49:10;;;;;;;3.53;2.10;;;28.90;56.80;;;;;;5112469;28;20040;-50
2021/09/03 10:51:37;;;;;;;3.22;1.90;;;;;;;;;;5112397;28;20039;-51
2021/09/03 10:54:16;;;;;;;4.68;2.33;;;;;;;;;;5112391;28;20023;-51
2021/09/03 10:56:54;;;;;;;3.58;2.28;;;;;;;;;;5112364;28;20036;-51
2021/09/03 10:59:19;;;;;;;4.28;2.40;;;30.20;73.40;;;;;;5112220;28;20055;-50
2021/09/03 11:01:50;;;;;;;2.40;1.90;;;;;;;;;;5112405;28;20467;-50
2021/09/03 11:04:16;;;;;;;3.17;2.13;;;30.30;78.20;;;;;;5112452;28;20024;-51
2021/09/03 11:07:05;;;;;;;4.00;2.25;;;30.30;78.50;;;;;;5112093;28;20035;-49
2021/09/03 11:09:31;;;;;;;4.97;2.45;;;;;;;;;;5112231;28;20035;-51
2021/09/03 11:12:02;;;;;;;7.60;2.58;;;;;;;;;;5094169;28;20039;-50
2021/09/03 11:14:30;;;;;;;4.55;2.80;;;;;;;;;;5116064;28;20032;-51
2021/09/03 11:17:04;;;;;;;4.47;2.20;;;30.40;54.60;;;;;;5116133;28;20027;-51
2021/09/03 11:19:32;;;;;;;7.10;2.17;;;30.50;56.60;;;;;;5115766;28;20032;-50
2021/09/03 11:22:08;;;;;;;2.92;2.33;;;30.90;54.20;;;;;;5116065;28;20096;-50
2021/09/03 11:24:37;;;;;;;3.13;2.40;;;30.20;52.60;;;;;;5079796;28;20036;-50
2021/09/03 11:27:07;;;;;;;3.05;2.20;;;30.60;54.00;;;;;;5116013;28;20034;-51
2021/09/03 11:29:45;;;;;;;3.67;2.40;;;29.60;54.40;;;;;;5079787;28;20258;-50
2021/09/03 11:32:12;;;;;;;4.53;2.92;;;29.00;54.20;;;;;;5115574;28;20035;-51
2021/09/03 11:34:47;;;;;;;5.82;3.30;;;28.90;56.00;;;;;;5079685;28;20054;-51
2021/09/03 11:37:26;;;;;;;3.58;2.35;;;29.60;55.50;;;;;;5115867;28;20036;-51
2021/09/03 11:40:02;;;;;;;3.53;2.45;;;29.60;53.40;;;;;;5115680;28;20466;-51
2021/09/03 11:42:30;;;;;;;7.97;2.17;;;30.30;55.20;;;;;;5077796;28;20050;-50
2021/09/03 11:45:01;;;;;;;4.93;2.90;;;;;;;;;;5116910;28;20034;-50
2021/09/03 11:47:35;;;;;;;5.00;2.75;;;28.50;54.00;;;;;;5116703;28;20062;-50
2021/09/03 11:50:02;;;;;;;5.30;3.42;;;28.90;56.20;;;;;;5113550;28;20053;-52
2021/09/03 11:52:31;;;;;;;4.38;2.83;;;29.00;55.30;;;;;;5116438;28;20122;-50
2021/09/03 11:54:58;;;;;;;7.53;3.58;;;28.50;69.80;;;;;;5116627;28;20046;-51
2021/09/03 11:57:25;;;;;;;5.38;2.30;;;29.00;83.40;;;;;;5116911;28;20028;-51
2021/09/03 11:59:59;;;;;;;5.43;2.30;;;28.80;68.50;;;;;;5116273;28;20391;-50
2021/09/03 12:02:26;;;;;;;3.00;2.17;;;;;;;;;;5116373;28;20086;-50
2021/09/03 12:04:53;;;;;;;4.10;2.78;;;29.90;53.00;;;;;;5116592;28;20039;-49
2021/09/03 12:07:21;;;;;;;5.60;2.63;;;29.00;54.30;;;;;;5081066;28;20046;-49
2021/09/03 12:09:47;;;;;;;3.88;2.50;;;29.50;55.30;;;;;;5080882;28;20035;-53
2021/09/03 12:12:22;;;;;;;4.70;2.63;;;29.50;54.40;;;;;;5063806;28;20043;-52
2021/09/03 12:14:59;;;;;;;4.50;3.25;;;29.90;54.90;;;;;;5116339;28;20043;-51
2021/09/03 12:17:40;;;;;;;3.92;2.47;;;30.20;54.80;;;;;;5115569;28;20110;-50
2021/09/03 12:20:16;;;;;;;3.90;2.70;;;30.40;54.50;;;;;;5114955;28;20034;-51
2021/09/03 12:22:51;;;;;;;3.72;2.35;;;30.00;54.10;;;;;;5078343;28;20127;-50
2021/09/03 12:25:18;;;;;;;3.25;2.30;;;29.90;54.30;;;;;;5078251;28;20532;-51
2021/09/03 12:28:14;;;;;;;3.20;2.45;;;29.80;53.80;;;;;;5114737;28;20387;-51
2021/09/03 12:30:41;;;;;;;3.17;2.15;;;29.80;53.90;;;;;;5078426;28;20050;-51
2021/09/03 12:33:21;;;;;;;4.10;2.60;;;29.90;54.10;;;;;;5078701;28;20043;-51
2021/09/03 12:35:48;;;;;;;5.50;2.70;;;29.70;54.30;;;;;;5111652;28;20440;-50
2021/09/03 12:38:14;;;;;;;4.13;2.50;;;29.60;53.40;;;;;;5114461;28;20482;-49
2021/09/03 12:40:40;;;;;;;4.93;2.65;;;29.80;53.40;;;;;;5114405;28;20036;-50
2021/09/03 12:43:15;;;;;;;4.07;2.70;;;29.90;53.40;;;;;;5114529;28;20394;-51
2021/09/03 12:45:46;;;;;;;3.55;2.28;;;30.30;53.70;;;;;;5114232;28;20497;-51
2021/09/03 12:48:12;;;;;;;5.70;2.63;;;29.80;53.20;;;;;;5114424;28;20054;-51
2021/09/03 12:50:43;;;;;;;3.38;2.58;;;29.90;53.10;;;;;;5078196;28;20483;-50
2021/09/03 12:53:18;;;;;;;3.85;2.17;;;30.10;53.00;;;;;;5064124;28;20055;-49
2021/09/03 12:55:44;;;;;;;3.65;2.72;;;29.90;52.50;;;;;;5114011;28;20119;-50
2021/09/03 12:58:09;;;;;;;4.18;2.30;;;29.80;52.70;;;;;;5114030;28;20114;-49